sensor_id;sensor_type;location;lat;lon;timestamp;temperature;humidity
75022;SHT31;63583;49.976;20.182;2022-12-08T00:01:21;2.48;75.70
75022;SHT31;63583;49.976;20.182;2022-12-08T00:03:47;2.56;74.79
75022;SHT31;63583;49.976;20.182;2022-12-08T00:09:20;2.46;74.96
75022;SHT31;63583;49.976;20.182;2022-12-08T00:14:15;2.49;75.48
75022;SHT31;63583;49.976;20.182;2022-12-08T00:16:41;2.39;75.83
75022;SHT31;63583;49.976;20.182;2022-12-08T00:19:07;2.38;75.75
75022;SHT31;63583;49.976;20.182;2022-12-08T00:21:32;2.44;75.30
75022;SHT31;63583;49.976;20.182;2022-12-08T00:23:58;2.41;75.68
75022;SHT31;63583;49.976;20.182;2022-12-08T00:26:24;2.35;75.86
75022;SHT31;63583;49.976;20.182;2022-12-08T00:28:50;2.48;74.92
75022;SHT31;63583;49.976;20.182;2022-12-08T00:31:16;2.48;75.08
75022;SHT31;63583;49.976;20.182;2022-12-08T00:33:41;2.38;75.45
75022;SHT31;63583;49.976;20.182;2022-12-08T00:36:12;2.31;75.69
75022;SHT31;63583;49.976;20.182;2022-12-08T00:38:39;2.32;75.77
75022;SHT31;63583;49.976;20.182;2022-12-08T00:41:13;2.31;75.96
75022;SHT31;63583;49.976;20.182;2022-12-08T00:43:40;2.35;75.78
75022;SHT31;63583;49.976;20.182;2022-12-08T00:46:06;2.15;76.38
75022;SHT31;63583;49.976;20.182;2022-12-08T00:48:32;2.10;76.82
75022;SHT31;63583;49.976;20.182;2022-12-08T00:50:58;2.03;76.92
75022;SHT31;63583;49.976;20.182;2022-12-08T00:53:23;1.97;77.55
75022;SHT31;63583;49.976;20.182;2022-12-08T00:55:49;2.01;77.31
75022;SHT31;63583;49.976;20.182;2022-12-08T00:58:15;1.97;77.76
75022;SHT31;63583;49.976;20.182;2022-12-08T01:00:42;2.06;77.37
75022;SHT31;63583;49.976;20.182;2022-12-08T01:03:11;1.98;77.37
75022;SHT31;63583;49.976;20.182;2022-12-08T01:05:38;1.94;78.02
75022;SHT31;63583;49.976;20.182;2022-12-08T01:08:07;1.81;78.48
75022;SHT31;63583;49.976;20.182;2022-12-08T01:10:34;1.73;78.81
75022;SHT31;63583;49.976;20.182;2022-12-08T01:13:01;1.69;79.13
75022;SHT31;63583;49.976;20.182;2022-12-08T01:15:27;1.63;79.39
75022;SHT31;63583;49.976;20.182;2022-12-08T01:17:52;1.59;79.69
75022;SHT31;63583;49.976;20.182;2022-12-08T01:20:18;1.53;80.21
75022;SHT31;63583;49.976;20.182;2022-12-08T01:22:44;1.56;80.05
75022;SHT31;63583;49.976;20.182;2022-12-08T01:25:10;1.51;80.39
75022;SHT31;63583;49.976;20.182;2022-12-08T01:27:35;1.53;80.21
75022;SHT31;63583;49.976;20.182;2022-12-08T01:30:01;1.49;80.19
75022;SHT31;63583;49.976;20.182;2022-12-08T01:32:27;1.56;79.86
75022;SHT31;63583;49.976;20.182;2022-12-08T01:34:54;1.62;79.93
75022;SHT31;63583;49.976;20.182;2022-12-08T01:37:19;1.53;79.84
75022;SHT31;63583;49.976;20.182;2022-12-08T01:39:45;1.49;79.95
75022;SHT31;63583;49.976;20.182;2022-12-08T01:42:21;1.42;80.20
75022;SHT31;63583;49.976;20.182;2022-12-08T01:45:27;1.42;80.18
75022;SHT31;63583;49.976;20.182;2022-12-08T01:47:59;1.39;80.39
75022;SHT31;63583;49.976;20.182;2022-12-08T01:50:28;1.41;80.44
75022;SHT31;63583;49.976;20.182;2022-12-08T01:52:58;1.38;80.66
75022;SHT31;63583;49.976;20.182;2022-12-08T01:55:32;1.51;80.21
75022;SHT31;63583;49.976;20.182;2022-12-08T01:58:03;1.56;79.84
75022;SHT31;63583;49.976;20.182;2022-12-08T02:00:30;1.39;80.38
75022;SHT31;63583;49.976;20.182;2022-12-08T02:03:05;1.30;80.94
75022;SHT31;63583;49.976;20.182;2022-12-08T02:05:35;1.38;80.60
75022;SHT31;63583;49.976;20.182;2022-12-08T02:08:02;1.42;80.43
75022;SHT31;63583;49.976;20.182;2022-12-08T02:10:34;1.36;80.54
75022;SHT31;63583;49.976;20.182;2022-12-08T02:13:01;1.25;81.39
75022;SHT31;63583;49.976;20.182;2022-12-08T02:15:38;1.15;81.71
75022;SHT31;63583;49.976;20.182;2022-12-08T02:23:36;1.30;80.93
75022;SHT31;63583;49.976;20.182;2022-12-08T02:34:02;1.20;81.01
75022;SHT31;63583;49.976;20.182;2022-12-08T02:41:53;1.21;81.10
75022;SHT31;63583;49.976;20.182;2022-12-08T02:44:40;1.17;80.84
75022;SHT31;63583;49.976;20.182;2022-12-08T02:47:08;1.28;80.95
75022;SHT31;63583;49.976;20.182;2022-12-08T02:49:34;1.46;79.55
75022;SHT31;63583;49.976;20.182;2022-12-08T02:54:56;1.51;79.40
75022;SHT31;63583;49.976;20.182;2022-12-08T02:57:38;1.43;79.40
75022;SHT31;63583;49.976;20.182;2022-12-08T03:02:43;1.35;79.96
75022;SHT31;63583;49.976;20.182;2022-12-08T03:05:27;1.36;79.75
75022;SHT31;63583;49.976;20.182;2022-12-08T03:11:08;1.58;78.71
75022;SHT31;63583;49.976;20.182;2022-12-08T03:13:41;1.52;79.02
75022;SHT31;63583;49.976;20.182;2022-12-08T03:16:10;1.42;79.57
75022;SHT31;63583;49.976;20.182;2022-12-08T03:18:43;1.45;79.43
75022;SHT31;63583;49.976;20.182;2022-12-08T03:21:12;1.56;79.37
75022;SHT31;63583;49.976;20.182;2022-12-08T03:23:40;1.59;79.55
75022;SHT31;63583;49.976;20.182;2022-12-08T03:26:21;1.67;79.23
75022;SHT31;63583;49.976;20.182;2022-12-08T03:28:49;1.66;79.38
75022;SHT31;63583;49.976;20.182;2022-12-08T03:31:16;1.79;78.73
75022;SHT31;63583;49.976;20.182;2022-12-08T03:33:44;1.76;78.95
75022;SHT31;63583;49.976;20.182;2022-12-08T03:36:13;1.80;78.57
75022;SHT31;63583;49.976;20.182;2022-12-08T03:38:44;1.74;78.96
75022;SHT31;63583;49.976;20.182;2022-12-08T03:41:10;1.86;78.61
75022;SHT31;63583;49.976;20.182;2022-12-08T03:43:53;1.79;78.94
75022;SHT31;63583;49.976;20.182;2022-12-08T03:46:21;1.83;79.22
75022;SHT31;63583;49.976;20.182;2022-12-08T03:48:47;1.81;78.88
75022;SHT31;63583;49.976;20.182;2022-12-08T03:51:14;1.94;79.46
75022;SHT31;63583;49.976;20.182;2022-12-08T03:53:40;1.74;79.86
75022;SHT31;63583;49.976;20.182;2022-12-08T03:56:15;1.64;80.21
75022;SHT31;63583;49.976;20.182;2022-12-08T03:58:44;1.60;80.35
75022;SHT31;63583;49.976;20.182;2022-12-08T04:01:10;1.49;80.64
75022;SHT31;63583;49.976;20.182;2022-12-08T04:03:36;1.51;80.77
75022;SHT31;63583;49.976;20.182;2022-12-08T04:06:02;1.59;80.37
75022;SHT31;63583;49.976;20.182;2022-12-08T04:08:28;1.51;80.57
75022;SHT31;63583;49.976;20.182;2022-12-08T04:10:53;1.31;81.65
75022;SHT31;63583;49.976;20.182;2022-12-08T04:13:20;1.39;81.62
75022;SHT31;63583;49.976;20.182;2022-12-08T04:15:47;1.41;81.31
75022;SHT31;63583;49.976;20.182;2022-12-08T04:18:13;1.45;81.28
75022;SHT31;63583;49.976;20.182;2022-12-08T04:20:40;1.38;81.53
75022;SHT31;63583;49.976;20.182;2022-12-08T04:23:07;1.28;82.51
75022;SHT31;63583;49.976;20.182;2022-12-08T04:25:33;1.32;82.43
75022;SHT31;63583;49.976;20.182;2022-12-08T04:28:00;1.43;81.83
75022;SHT31;63583;49.976;20.182;2022-12-08T04:30:25;1.39;82.29
75022;SHT31;63583;49.976;20.182;2022-12-08T04:32:51;1.48;81.89
75022;SHT31;63583;49.976;20.182;2022-12-08T04:35:17;1.43;82.31
75022;SHT31;63583;49.976;20.182;2022-12-08T04:37:43;1.36;82.58
75022;SHT31;63583;49.976;20.182;2022-12-08T04:40:10;1.36;82.85
75022;SHT31;63583;49.976;20.182;2022-12-08T04:42:37;1.42;82.65
75022;SHT31;63583;49.976;20.182;2022-12-08T04:45:03;1.35;82.86
75022;SHT31;63583;49.976;20.182;2022-12-08T04:47:29;1.41;82.91
75022;SHT31;63583;49.976;20.182;2022-12-08T04:49:55;1.38;82.84
75022;SHT31;63583;49.976;20.182;2022-12-08T04:52:21;1.39;82.67
75022;SHT31;63583;49.976;20.182;2022-12-08T04:54:46;1.39;82.34
75022;SHT31;63583;49.976;20.182;2022-12-08T04:57:13;1.31;82.29
75022;SHT31;63583;49.976;20.182;2022-12-08T04:59:39;1.22;82.37
75022;SHT31;63583;49.976;20.182;2022-12-08T05:02:05;1.28;82.17
75022;SHT31;63583;49.976;20.182;2022-12-08T05:04:31;1.28;82.35
75022;SHT31;63583;49.976;20.182;2022-12-08T05:06:57;1.28;82.39
75022;SHT31;63583;49.976;20.182;2022-12-08T05:09:22;1.32;82.22
75022;SHT31;63583;49.976;20.182;2022-12-08T05:11:48;1.35;81.93
75022;SHT31;63583;49.976;20.182;2022-12-08T05:14:15;1.27;82.17
75022;SHT31;63583;49.976;20.182;2022-12-08T05:16:42;1.31;82.22
75022;SHT31;63583;49.976;20.182;2022-12-08T05:19:14;1.43;81.61
75022;SHT31;63583;49.976;20.182;2022-12-08T05:22:41;1.42;81.44
75022;SHT31;63583;49.976;20.182;2022-12-08T05:25:48;1.52;81.12
75022;SHT31;63583;49.976;20.182;2022-12-08T05:28:13;1.46;81.08
75022;SHT31;63583;49.976;20.182;2022-12-08T05:30:39;1.42;81.38
75022;SHT31;63583;49.976;20.182;2022-12-08T05:33:05;1.45;81.28
75022;SHT31;63583;49.976;20.182;2022-12-08T05:35:31;1.51;81.28
75022;SHT31;63583;49.976;20.182;2022-12-08T05:37:57;1.43;81.71
75022;SHT31;63583;49.976;20.182;2022-12-08T05:40:22;1.43;82.20
75022;SHT31;63583;49.976;20.182;2022-12-08T05:42:48;1.43;82.13
75022;SHT31;63583;49.976;20.182;2022-12-08T05:45:14;1.41;82.19
75022;SHT31;63583;49.976;20.182;2022-12-08T05:47:39;1.35;82.26
75022;SHT31;63583;49.976;20.182;2022-12-08T05:50:05;1.41;82.51
75022;SHT31;63583;49.976;20.182;2022-12-08T05:52:31;1.30;82.74
75022;SHT31;63583;49.976;20.182;2022-12-08T05:54:57;1.24;83.12
75022;SHT31;63583;49.976;20.182;2022-12-08T05:57:23;1.09;83.36
75022;SHT31;63583;49.976;20.182;2022-12-08T05:59:48;1.04;83.63
75022;SHT31;63583;49.976;20.182;2022-12-08T06:02:14;1.01;83.84
75022;SHT31;63583;49.976;20.182;2022-12-08T06:04:40;0.95;83.87
75022;SHT31;63583;49.976;20.182;2022-12-08T06:07:07;0.90;84.12
75022;SHT31;63583;49.976;20.182;2022-12-08T06:09:33;0.87;84.26
75022;SHT31;63583;49.976;20.182;2022-12-08T06:11:59;0.77;84.64
75022;SHT31;63583;49.976;20.182;2022-12-08T06:14:25;0.74;84.78
75022;SHT31;63583;49.976;20.182;2022-12-08T06:16:51;0.73;85.13
75022;SHT31;63583;49.976;20.182;2022-12-08T06:19:17;0.72;84.95
75022;SHT31;63583;49.976;20.182;2022-12-08T06:21:43;0.67;85.14
75022;SHT31;63583;49.976;20.182;2022-12-08T06:24:08;0.63;85.36
75022;SHT31;63583;49.976;20.182;2022-12-08T06:26:34;0.60;85.11
75022;SHT31;63583;49.976;20.182;2022-12-08T06:29:00;0.63;85.48
75022;SHT31;63583;49.976;20.182;2022-12-08T06:31:27;0.67;85.75
75022;SHT31;63583;49.976;20.182;2022-12-08T06:33:53;0.76;85.51
75022;SHT31;63583;49.976;20.182;2022-12-08T06:36:44;0.81;85.51
75022;SHT31;63583;49.976;20.182;2022-12-08T06:39:10;0.93;85.26
75022;SHT31;63583;49.976;20.182;2022-12-08T06:41:36;0.95;85.11
75022;SHT31;63583;49.976;20.182;2022-12-08T06:44:21;0.97;84.89
75022;SHT31;63583;49.976;20.182;2022-12-08T06:46:47;1.05;84.66
75022;SHT31;63583;49.976;20.182;2022-12-08T06:49:13;1.12;84.69
75022;SHT31;63583;49.976;20.182;2022-12-08T06:51:39;1.21;84.26
75022;SHT31;63583;49.976;20.182;2022-12-08T06:54:04;1.38;83.86
75022;SHT31;63583;49.976;20.182;2022-12-08T06:56:30;1.67;82.06
75022;SHT31;63583;49.976;20.182;2022-12-08T06:58:56;1.64;82.35
75022;SHT31;63583;49.976;20.182;2022-12-08T07:01:22;1.83;81.43
75022;SHT31;63583;49.976;20.182;2022-12-08T07:03:47;1.97;81.17
75022;SHT31;63583;49.976;20.182;2022-12-08T07:06:15;1.98;80.68
75022;SHT31;63583;49.976;20.182;2022-12-08T07:08:42;2.06;80.54
75022;SHT31;63583;49.976;20.182;2022-12-08T07:11:10;2.17;80.09
75022;SHT31;63583;49.976;20.182;2022-12-08T07:13:35;2.06;80.60
75022;SHT31;63583;49.976;20.182;2022-12-08T07:16:07;2.15;80.53
75022;SHT31;63583;49.976;20.182;2022-12-08T07:18:34;2.20;79.71
75022;SHT31;63583;49.976;20.182;2022-12-08T07:21:05;2.13;80.17
75022;SHT31;63583;49.976;20.182;2022-12-08T07:23:31;2.14;80.20
75022;SHT31;63583;49.976;20.182;2022-12-08T07:26:01;2.18;80.13
75022;SHT31;63583;49.976;20.182;2022-12-08T07:28:30;2.25;79.75
75022;SHT31;63583;49.976;20.182;2022-12-08T07:30:56;2.29;79.57
75022;SHT31;63583;49.976;20.182;2022-12-08T07:33:21;2.31;79.81
75022;SHT31;63583;49.976;20.182;2022-12-08T07:35:59;2.46;78.83
75022;SHT31;63583;49.976;20.182;2022-12-08T07:38:26;2.39;78.92
75022;SHT31;63583;49.976;20.182;2022-12-08T07:40:53;2.37;79.14
75022;SHT31;63583;49.976;20.182;2022-12-08T07:43:19;2.29;79.49
75022;SHT31;63583;49.976;20.182;2022-12-08T07:45:46;2.31;79.43
75022;SHT31;63583;49.976;20.182;2022-12-08T07:48:11;2.24;79.69
75022;SHT31;63583;49.976;20.182;2022-12-08T07:50:38;2.29;78.99
75022;SHT31;63583;49.976;20.182;2022-12-08T07:53:04;2.29;79.58
75022;SHT31;63583;49.976;20.182;2022-12-08T07:55:30;2.32;79.01
75022;SHT31;63583;49.976;20.182;2022-12-08T07:57:56;2.42;78.50
75022;SHT31;63583;49.976;20.182;2022-12-08T08:00:22;2.41;78.52
75022;SHT31;63583;49.976;20.182;2022-12-08T08:02:48;2.32;79.14
75022;SHT31;63583;49.976;20.182;2022-12-08T08:05:13;2.37;79.30
75022;SHT31;63583;49.976;20.182;2022-12-08T08:07:40;2.41;78.99
75022;SHT31;63583;49.976;20.182;2022-12-08T08:10:11;2.50;78.57
75022;SHT31;63583;49.976;20.182;2022-12-08T08:12:37;2.56;78.63
75022;SHT31;63583;49.976;20.182;2022-12-08T08:15:06;2.63;78.25
75022;SHT31;63583;49.976;20.182;2022-12-08T08:17:32;2.66;77.95
75022;SHT31;63583;49.976;20.182;2022-12-08T08:19:58;2.87;77.22
75022;SHT31;63583;49.976;20.182;2022-12-08T08:22:25;3.03;76.78
75022;SHT31;63583;49.976;20.182;2022-12-08T08:24:51;3.01;76.61
75022;SHT31;63583;49.976;20.182;2022-12-08T08:27:18;2.94;77.03
75022;SHT31;63583;49.976;20.182;2022-12-08T08:29:44;2.92;77.10
75022;SHT31;63583;49.976;20.182;2022-12-08T08:32:10;3.04;76.40
75022;SHT31;63583;49.976;20.182;2022-12-08T08:34:36;3.04;76.58
75022;SHT31;63583;49.976;20.182;2022-12-08T08:37:02;3.20;75.75
75022;SHT31;63583;49.976;20.182;2022-12-08T08:39:28;3.08;76.51
75022;SHT31;63583;49.976;20.182;2022-12-08T08:41:56;3.24;75.74
75022;SHT31;63583;49.976;20.182;2022-12-08T08:44:22;3.28;75.79
75022;SHT31;63583;49.976;20.182;2022-12-08T08:46:48;3.35;75.49
75022;SHT31;63583;49.976;20.182;2022-12-08T08:49:14;3.32;75.32
75022;SHT31;63583;49.976;20.182;2022-12-08T08:51:39;3.48;74.33
75022;SHT31;63583;49.976;20.182;2022-12-08T08:54:05;3.56;74.12
75022;SHT31;63583;49.976;20.182;2022-12-08T08:56:31;3.66;74.01
75022;SHT31;63583;49.976;20.182;2022-12-08T08:58:57;3.56;73.96
75022;SHT31;63583;49.976;20.182;2022-12-08T09:01:25;3.66;73.85
75022;SHT31;63583;49.976;20.182;2022-12-08T09:03:53;3.69;73.19
75022;SHT31;63583;49.976;20.182;2022-12-08T09:06:19;3.82;72.11
75022;SHT31;63583;49.976;20.182;2022-12-08T09:08:46;3.83;72.63
75022;SHT31;63583;49.976;20.182;2022-12-08T09:11:12;3.87;72.94
75022;SHT31;63583;49.976;20.182;2022-12-08T09:13:38;3.89;72.82
75022;SHT31;63583;49.976;20.182;2022-12-08T09:16:05;4.01;72.25
75022;SHT31;63583;49.976;20.182;2022-12-08T09:18:32;4.13;71.99
75022;SHT31;63583;49.976;20.182;2022-12-08T09:21:09;4.18;72.50
75022;SHT31;63583;49.976;20.182;2022-12-08T09:23:38;4.25;71.07
75022;SHT31;63583;49.976;20.182;2022-12-08T09:26:04;4.31;71.96
75022;SHT31;63583;49.976;20.182;2022-12-08T09:28:31;4.33;71.47
75022;SHT31;63583;49.976;20.182;2022-12-08T09:30:56;4.33;70.80
75022;SHT31;63583;49.976;20.182;2022-12-08T09:33:22;4.44;71.09
75022;SHT31;63583;49.976;20.182;2022-12-08T09:35:48;4.42;71.29
75022;SHT31;63583;49.976;20.182;2022-12-08T09:38:14;4.48;71.07
75022;SHT31;63583;49.976;20.182;2022-12-08T09:41:00;4.40;70.68
75022;SHT31;63583;49.976;20.182;2022-12-08T09:44:11;4.48;70.86
75022;SHT31;63583;49.976;20.182;2022-12-08T09:46:32;4.54;70.04
75022;SHT31;63583;49.976;20.182;2022-12-08T09:48:59;4.49;70.41
75022;SHT31;63583;49.976;20.182;2022-12-08T09:51:30;4.42;70.15
75022;SHT31;63583;49.976;20.182;2022-12-08T09:54:08;4.36;70.09
75022;SHT31;63583;49.976;20.182;2022-12-08T09:56:37;4.42;69.92
75022;SHT31;63583;49.976;20.182;2022-12-08T09:59:22;4.38;70.75
75022;SHT31;63583;49.976;20.182;2022-12-08T10:01:48;4.52;69.94
75022;SHT31;63583;49.976;20.182;2022-12-08T10:04:33;4.51;69.36
75022;SHT31;63583;49.976;20.182;2022-12-08T10:07:35;4.54;69.89
75022;SHT31;63583;49.976;20.182;2022-12-08T10:12:53;4.59;68.79
75022;SHT31;63583;49.976;20.182;2022-12-08T10:18:06;4.51;69.67
75022;SHT31;63583;49.976;20.182;2022-12-08T10:20:37;4.45;69.24
75022;SHT31;63583;49.976;20.182;2022-12-08T10:23:12;4.49;69.92
75022;SHT31;63583;49.976;20.182;2022-12-08T10:25:51;4.44;69.81
75022;SHT31;63583;49.976;20.182;2022-12-08T10:28:18;4.40;69.56
75022;SHT31;63583;49.976;20.182;2022-12-08T10:30:44;4.42;69.89
75022;SHT31;63583;49.976;20.182;2022-12-08T10:33:15;4.40;69.49
75022;SHT31;63583;49.976;20.182;2022-12-08T10:35:46;4.28;70.08
75022;SHT31;63583;49.976;20.182;2022-12-08T10:38:36;4.36;69.51
75022;SHT31;63583;49.976;20.182;2022-12-08T10:41:06;4.31;70.14
75022;SHT31;63583;49.976;20.182;2022-12-08T10:43:41;4.27;69.91
75022;SHT31;63583;49.976;20.182;2022-12-08T10:48:53;4.34;69.37
75022;SHT31;63583;49.976;20.182;2022-12-08T10:51:49;4.14;70.80
75022;SHT31;63583;49.976;20.182;2022-12-08T10:54:34;4.21;70.80
75022;SHT31;63583;49.976;20.182;2022-12-08T10:57:03;4.10;71.02
75022;SHT31;63583;49.976;20.182;2022-12-08T10:59:32;4.13;70.96
75022;SHT31;63583;49.976;20.182;2022-12-08T11:01:58;4.16;71.21
75022;SHT31;63583;49.976;20.182;2022-12-08T11:04:34;4.25;70.82
75022;SHT31;63583;49.976;20.182;2022-12-08T11:07:03;4.25;70.49
75022;SHT31;63583;49.976;20.182;2022-12-08T11:19:59;4.14;72.05
75022;SHT31;63583;49.976;20.182;2022-12-08T11:22:29;4.33;71.37
75022;SHT31;63583;49.976;20.182;2022-12-08T11:24:57;4.18;71.90
75022;SHT31;63583;49.976;20.182;2022-12-08T11:27:24;4.17;72.15
75022;SHT31;63583;49.976;20.182;2022-12-08T11:29:50;4.30;71.38
75022;SHT31;63583;49.976;20.182;2022-12-08T11:32:16;4.27;72.08
75022;SHT31;63583;49.976;20.182;2022-12-08T11:34:46;4.37;72.06
75022;SHT31;63583;49.976;20.182;2022-12-08T11:37:39;4.36;71.89
75022;SHT31;63583;49.976;20.182;2022-12-08T11:40:13;4.37;72.24
75022;SHT31;63583;49.976;20.182;2022-12-08T11:45:59;4.31;73.20
75022;SHT31;63583;49.976;20.182;2022-12-08T11:56:56;4.37;73.89
75022;SHT31;63583;49.976;20.182;2022-12-08T11:59:42;4.33;73.32
75022;SHT31;63583;49.976;20.182;2022-12-08T12:02:23;4.36;73.89
75022;SHT31;63583;49.976;20.182;2022-12-08T12:05:35;4.41;73.06
75022;SHT31;63583;49.976;20.182;2022-12-08T12:10:49;4.48;73.06
75022;SHT31;63583;49.976;20.182;2022-12-08T12:19:01;4.48;73.88
75022;SHT31;63583;49.976;20.182;2022-12-08T12:21:38;4.47;73.72
75022;SHT31;63583;49.976;20.182;2022-12-08T12:24:17;4.48;73.44
75022;SHT31;63583;49.976;20.182;2022-12-08T12:30:00;4.62;73.31
75022;SHT31;63583;49.976;20.182;2022-12-08T12:32:40;4.67;73.32
75022;SHT31;63583;49.976;20.182;2022-12-08T12:35:15;4.59;74.03
75022;SHT31;63583;49.976;20.182;2022-12-08T12:37:44;4.45;74.59
75022;SHT31;63583;49.976;20.182;2022-12-08T12:40:21;4.42;74.26
75022;SHT31;63583;49.976;20.182;2022-12-08T12:53:45;4.25;74.96
75022;SHT31;63583;49.976;20.182;2022-12-08T12:55:59;4.21;75.89
75022;SHT31;63583;49.976;20.182;2022-12-08T13:03:33;4.16;76.49
75022;SHT31;63583;49.976;20.182;2022-12-08T13:05:59;4.16;77.04
75022;SHT31;63583;49.976;20.182;2022-12-08T13:08:25;4.11;77.02
75022;SHT31;63583;49.976;20.182;2022-12-08T13:11:03;4.11;76.90
75022;SHT31;63583;49.976;20.182;2022-12-08T13:13:30;4.13;76.91
75022;SHT31;63583;49.976;20.182;2022-12-08T13:16:04;4.13;76.92
75022;SHT31;63583;49.976;20.182;2022-12-08T13:18:55;4.10;77.10
75022;SHT31;63583;49.976;20.182;2022-12-08T13:21:23;4.13;77.09
75022;SHT31;63583;49.976;20.182;2022-12-08T13:27:33;4.07;76.76
75022;SHT31;63583;49.976;20.182;2022-12-08T13:29:35;3.99;76.31
75022;SHT31;63583;49.976;20.182;2022-12-08T13:32:03;3.93;76.61
75022;SHT31;63583;49.976;20.182;2022-12-08T13:34:50;3.87;76.40
75022;SHT31;63583;49.976;20.182;2022-12-08T13:37:30;3.86;76.79
75022;SHT31;63583;49.976;20.182;2022-12-08T13:40:04;3.82;76.72
75022;SHT31;63583;49.976;20.182;2022-12-08T13:45:14;3.87;75.48
75022;SHT31;63583;49.976;20.182;2022-12-08T13:47:47;3.86;75.16
75022;SHT31;63583;49.976;20.182;2022-12-08T13:50:24;3.66;76.87
75022;SHT31;63583;49.976;20.182;2022-12-08T13:52:57;3.62;77.36
75022;SHT31;63583;49.976;20.182;2022-12-08T13:55:32;3.78;76.73
75022;SHT31;63583;49.976;20.182;2022-12-08T13:57:59;3.86;75.70
75022;SHT31;63583;49.976;20.182;2022-12-08T14:00:25;3.87;75.51
75022;SHT31;63583;49.976;20.182;2022-12-08T14:02:56;3.83;75.61
75022;SHT31;63583;49.976;20.182;2022-12-08T14:05:24;3.73;75.61
75022;SHT31;63583;49.976;20.182;2022-12-08T14:07:54;3.69;75.68
75022;SHT31;63583;49.976;20.182;2022-12-08T14:10:24;3.69;76.18
75022;SHT31;63583;49.976;20.182;2022-12-08T14:12:54;3.65;76.43
75022;SHT31;63583;49.976;20.182;2022-12-08T14:15:21;3.56;76.00
75022;SHT31;63583;49.976;20.182;2022-12-08T14:17:55;3.54;76.63
75022;SHT31;63583;49.976;20.182;2022-12-08T14:20:29;3.62;75.63
75022;SHT31;63583;49.976;20.182;2022-12-08T14:22:56;3.48;75.61
75022;SHT31;63583;49.976;20.182;2022-12-08T14:25:25;3.48;75.91
75022;SHT31;63583;49.976;20.182;2022-12-08T14:27:57;3.48;76.24
75022;SHT31;63583;49.976;20.182;2022-12-08T14:30:29;3.46;77.11
75022;SHT31;63583;49.976;20.182;2022-12-08T14:33:01;3.44;77.12
75022;SHT31;63583;49.976;20.182;2022-12-08T14:35:33;3.38;76.25
75022;SHT31;63583;49.976;20.182;2022-12-08T14:38:02;3.25;77.34
75022;SHT31;63583;49.976;20.182;2022-12-08T14:40:35;3.24;77.53
75022;SHT31;63583;49.976;20.182;2022-12-08T14:43:09;3.35;77.13
75022;SHT31;63583;49.976;20.182;2022-12-08T14:53:59;3.04;78.90
75022;SHT31;63583;49.976;20.182;2022-12-08T14:56:32;3.03;79.05
75022;SHT31;63583;49.976;20.182;2022-12-08T15:01:31;3.10;78.41
75022;SHT31;63583;49.976;20.182;2022-12-08T15:09:40;3.06;78.52
75022;SHT31;63583;49.976;20.182;2022-12-08T15:19:55;3.13;77.86
75022;SHT31;63583;49.976;20.182;2022-12-08T15:22:21;3.03;78.06
75022;SHT31;63583;49.976;20.182;2022-12-08T15:24:47;3.00;78.15
75022;SHT31;63583;49.976;20.182;2022-12-08T15:27:19;2.99;78.20
75022;SHT31;63583;49.976;20.182;2022-12-08T15:29:48;2.96;78.53
75022;SHT31;63583;49.976;20.182;2022-12-08T15:35:36;2.97;78.35
75022;SHT31;63583;49.976;20.182;2022-12-08T15:38:02;3.07;77.89
75022;SHT31;63583;49.976;20.182;2022-12-08T15:40:27;3.03;77.74
75022;SHT31;63583;49.976;20.182;2022-12-08T15:42:53;3.00;77.94
75022;SHT31;63583;49.976;20.182;2022-12-08T15:45:22;3.01;78.10
75022;SHT31;63583;49.976;20.182;2022-12-08T15:47:49;3.01;78.16
75022;SHT31;63583;49.976;20.182;2022-12-08T15:50:17;3.04;78.40
75022;SHT31;63583;49.976;20.182;2022-12-08T15:52:43;3.17;77.52
75022;SHT31;63583;49.976;20.182;2022-12-08T15:55:13;3.17;77.31
75022;SHT31;63583;49.976;20.182;2022-12-08T15:57:39;3.15;77.36
75022;SHT31;63583;49.976;20.182;2022-12-08T16:02:49;3.23;76.93
75022;SHT31;63583;49.976;20.182;2022-12-08T16:05:15;3.20;77.07
75022;SHT31;63583;49.976;20.182;2022-12-08T16:07:41;3.15;77.20
75022;SHT31;63583;49.976;20.182;2022-12-08T16:10:14;3.07;77.69
75022;SHT31;63583;49.976;20.182;2022-12-08T16:12:41;3.03;77.62
75022;SHT31;63583;49.976;20.182;2022-12-08T16:15:26;3.08;77.58
75022;SHT31;63583;49.976;20.182;2022-12-08T16:17:51;3.28;76.40
75022;SHT31;63583;49.976;20.182;2022-12-08T16:20:17;3.27;76.37
75022;SHT31;63583;49.976;20.182;2022-12-08T16:22:44;3.11;77.00
75022;SHT31;63583;49.976;20.182;2022-12-08T16:25:10;3.07;77.26
75022;SHT31;63583;49.976;20.182;2022-12-08T16:27:38;3.10;77.35
75022;SHT31;63583;49.976;20.182;2022-12-08T16:30:06;3.11;76.81
75022;SHT31;63583;49.976;20.182;2022-12-08T16:32:33;3.03;77.13
75022;SHT31;63583;49.976;20.182;2022-12-08T16:34:58;2.99;77.72
75022;SHT31;63583;49.976;20.182;2022-12-08T16:37:26;3.10;77.27
75022;SHT31;63583;49.976;20.182;2022-12-08T16:39:53;3.07;77.23
75022;SHT31;63583;49.976;20.182;2022-12-08T16:42:31;2.99;77.61
75022;SHT31;63583;49.976;20.182;2022-12-08T16:45:19;2.90;78.02
75022;SHT31;63583;49.976;20.182;2022-12-08T16:47:50;2.83;78.24
75022;SHT31;63583;49.976;20.182;2022-12-08T16:50:17;2.83;78.40
75022;SHT31;63583;49.976;20.182;2022-12-08T16:52:44;2.83;78.26
75022;SHT31;63583;49.976;20.182;2022-12-08T16:55:15;2.85;78.37
75022;SHT31;63583;49.976;20.182;2022-12-08T16:57:42;2.90;77.88
75022;SHT31;63583;49.976;20.182;2022-12-08T17:00:11;2.92;77.60
75022;SHT31;63583;49.976;20.182;2022-12-08T17:02:37;2.90;77.77
75022;SHT31;63583;49.976;20.182;2022-12-08T17:05:03;2.89;77.78
75022;SHT31;63583;49.976;20.182;2022-12-08T17:07:33;2.85;77.58
75022;SHT31;63583;49.976;20.182;2022-12-08T17:10:02;2.83;77.35
75022;SHT31;63583;49.976;20.182;2022-12-08T17:12:28;2.85;77.29
75022;SHT31;63583;49.976;20.182;2022-12-08T17:14:54;2.73;77.76
75022;SHT31;63583;49.976;20.182;2022-12-08T17:17:20;2.75;77.95
75022;SHT31;63583;49.976;20.182;2022-12-08T17:19:46;2.82;77.75
75022;SHT31;63583;49.976;20.182;2022-12-08T17:22:12;2.87;77.33
75022;SHT31;63583;49.976;20.182;2022-12-08T17:24:37;2.89;77.47
75022;SHT31;63583;49.976;20.182;2022-12-08T17:27:03;2.85;77.67
75022;SHT31;63583;49.976;20.182;2022-12-08T17:29:30;2.89;77.54
75022;SHT31;63583;49.976;20.182;2022-12-08T17:31:57;2.83;77.91
75022;SHT31;63583;49.976;20.182;2022-12-08T17:34:23;2.83;77.83
75022;SHT31;63583;49.976;20.182;2022-12-08T17:36:49;2.83;78.08
75022;SHT31;63583;49.976;20.182;2022-12-08T17:39:15;2.83;78.16
75022;SHT31;63583;49.976;20.182;2022-12-08T17:41:41;2.96;77.32
75022;SHT31;63583;49.976;20.182;2022-12-08T17:44:10;2.99;77.42
75022;SHT31;63583;49.976;20.182;2022-12-08T17:46:37;2.92;77.64
75022;SHT31;63583;49.976;20.182;2022-12-08T17:49:08;2.89;77.96
75022;SHT31;63583;49.976;20.182;2022-12-08T17:51:34;2.89;77.79